Time;durP1;ratioP1;P1;durP2;ratioP2;P2;SDS_P1;SDS_P2;PMS_P1;PMS_P2;Temp;Humidity;BMP_temperature;BMP_pressure;BME280_temperature;BME280_humidity;BME280_pressure;Samples;Min_cycle;Max_cycle;Signal;HPM_P1;HPM_P2
2023/09/17 00:01:59;;;;;;;32.42;17.02;;;;;;;19.13;52.87;101029.37;1688201;85;21364;-80
2023/09/17 00:05:06;;;;;;;24.75;16.42;;;;;;;19.12;52.96;101029.05;1689126;85;21341;-80
2023/09/17 00:08:11;;;;;;;28.83;16.00;;;;;;;18.77;54.01;101032.61;1688238;85;21956;-80
2023/09/17 00:11:16;;;;;;;27.20;15.98;;;;;;;19.03;53.35;101024.80;1680486;85;21401;-80
2023/09/17 00:14:22;;;;;;;29.60;16.82;;;;;;;18.96;53.53;101014.77;1649563;86;21343;-79
2023/09/17 00:17:27;;;;;;;34.48;16.77;;;;;;;18.78;54.05;101024.60;1642296;87;21333;-79
2023/09/17 00:20:33;;;;;;;29.72;16.95;;;;;;;18.88;53.81;101020.86;1680158;85;21990;-79
2023/09/17 00:23:38;;;;;;;25.55;16.85;;;;;;;18.90;53.95;101016.48;1639318;87;21373;-79
2023/09/17 00:26:43;;;;;;;27.45;18.02;;;;;;;18.48;55.03;101024.64;1640616;87;21354;-79
2023/09/17 00:29:49;;;;;;;30.10;18.50;;;;;;;18.57;55.00;101026.99;1640567;87;22614;-79
2023/09/17 00:32:49;;;;;;;26.87;16.97;;;;;;;18.55;54.94;101023.59;1640786;87;21386;-79
2023/09/17 00:35:54;;;;;;;31.75;17.45;;;;;;;18.55;54.94;101023.59;1640592;87;21846;-80
2023/09/17 00:38:59;;;;;;;32.50;17.70;;;;;;;18.64;54.71;101030.64;1639793;87;21406;-79
2023/09/17 00:42:04;;;;;;;37.13;19.15;;;;;;;18.64;54.83;101020.94;1641277;87;21333;-79
2023/09/17 00:45:13;;;;;;;29.90;17.67;;;;;;;18.67;54.90;101027.95;1643165;87;21345;-79
2023/09/17 00:48:19;;;;;;;32.93;18.77;;;;;;;18.58;55.16;101027.34;1642019;87;21303;-79
2023/09/17 00:51:26;;;;;;;31.97;17.20;;;;;;;18.61;55.24;101017.20;1643250;87;21373;-79
2023/09/17 00:54:32;;;;;;;30.15;17.20;;;;;;;18.56;55.49;101021.67;1642123;87;22044;-79
2023/09/17 00:57:38;;;;;;;31.17;17.40;;;;;;;18.63;55.22;101024.78;1641602;87;21378;-79
2023/09/17 01:00:44;;;;;;;25.48;16.05;;;;;;;18.60;55.35;101019.66;1643606;87;21374;-79
2023/09/17 01:03:49;;;;;;;27.73;17.75;;;;;;;18.93;54.59;101013.83;1644004;87;21347;-79
2023/09/17 01:06:55;;;;;;;34.50;18.10;;;;;;;18.93;54.40;101016.61;1644198;87;21355;-79
2023/09/17 01:10:01;;;;;;;28.12;17.30;;;;;;;18.95;54.40;101011.15;1642958;87;22036;-79
2023/09/17 01:13:09;;;;;;;26.12;16.35;;;;;;;18.88;54.49;101009.78;1613977;89;21397;-80
2023/09/17 01:16:14;;;;;;;32.75;17.80;;;;;;;18.91;54.51;101015.41;1656511;86;21318;-80
2023/09/17 01:19:29;;;;;;;26.62;17.15;;;;;;;18.69;55.05;101012.56;1664218;86;21329;-80
2023/09/17 01:22:45;;;;;;;21.90;13.78;;;;;;;18.68;55.12;101014.45;1664405;86;21374;-80
2023/09/17 01:26:05;;;;;;;24.00;15.58;;;;;;;18.56;55.52;101018.37;1665723;85;21338;-80
2023/09/17 01:29:11;;;;;;;22.75;15.10;;;;;;;18.52;55.77;101014.31;1689226;85;21315;-81
2023/09/17 01:32:11;;;;;;;27.17;15.83;;;;;;;18.29;56.41;101017.47;1670404;85;21928;-80
2023/09/17 01:35:03;;;;;;;24.23;15.35;;;;;;;18.34;56.39;101013.53;1687168;85;21318;-80
2023/09/17 01:38:12;;;;;;;23.92;15.10;;;;;;;18.38;56.25;101012.59;1688579;85;21354;-80
2023/09/17 01:41:17;;;;;;;21.12;15.53;;;;;;;18.24;56.43;101014.48;1682378;85;21351;-80
2023/09/17 01:44:24;;;;;;;30.20;16.35;;;;;;;18.33;56.32;101019.30;1690565;85;21869;-80
2023/09/17 01:47:29;;;;;;;24.90;16.23;;;;;;;18.22;56.57;101011.08;1672581;85;21334;-80
2023/09/17 01:50:35;;;;;;;28.85;15.40;;;;;;;17.98;57.43;101016.66;1673805;85;21906;-80
2023/09/17 01:53:41;;;;;;;21.33;15.05;;;;;;;18.15;56.97;101007.42;1673917;85;21363;-81
2023/09/17 01:56:48;;;;;;;24.80;15.78;;;;;;;18.12;57.01;101004.56;1673998;85;21896;-81
2023/09/17 01:59:53;;;;;;;24.35;15.38;;;;;;;18.23;56.83;101007.23;1669454;85;21394;-79
2023/09/17 02:03:02;;;;;;;28.25;16.45;;;;;;;18.44;56.30;101005.34;1669075;86;21902;-79
2023/09/17 02:06:09;;;;;;;28.60;16.02;;;;;;;18.13;57.03;101006.26;1670446;86;21351;-79
2023/09/17 02:09:15;;;;;;;24.05;14.68;;;;;;;18.43;56.19;101011.42;1670121;86;21355;-79
2023/09/17 02:12:20;;;;;;;27.00;15.40;;;;;;;18.44;56.08;101005.34;1669629;86;21370;-79
2023/09/17 02:15:27;;;;;;;30.02;15.50;;;;;;;18.46;56.15;101004.09;1670268;86;21327;-79
2023/09/17 02:18:32;;;;;;;34.73;15.93;;;;;;;18.27;56.60;101002.14;1670362;86;21339;-79
2023/09/17 02:21:38;;;;;;;26.30;15.72;;;;;;;18.04;57.43;101001.97;1670487;86;21339;-79
2023/09/17 02:24:46;;;;;;;24.67;16.30;;;;;;;18.32;56.65;101001.83;1670229;86;21383;-80
2023/09/17 02:27:53;;;;;;;22.37;15.13;;;;;;;18.41;56.18;100992.79;1671101;86;21335;-80
2023/09/17 02:30:59;;;;;;;28.85;16.37;;;;;;;18.20;56.58;100993.80;1670573;86;21901;-80
2023/09/17 02:34:05;;;;;;;24.50;15.63;;;;;;;18.04;57.23;100997.82;1670467;86;21652;-80
2023/09/17 02:37:10;;;;;;;21.17;16.25;;;;;;;17.88;57.53;100993.53;1670546;86;21367;-80
2023/09/17 02:40:18;;;;;;;24.27;15.53;;;;;;;17.93;57.63;101001.20;1670655;86;21371;-80
2023/09/17 02:43:24;;;;;;;25.72;15.18;;;;;;;17.85;57.94;100998.08;1669442;86;21894;-80
2023/09/17 02:46:31;;;;;;;25.48;17.12;;;;;;;17.95;57.61;101000.98;1670335;86;21889;-80
2023/09/17 02:49:39;;;;;;;21.75;15.48;;;;;;;17.86;57.79;101008.62;1671490;86;21363;-80
2023/09/17 02:52:38;;;;;;;23.10;15.23;;;;;;;17.90;57.73;101006.30;1669833;86;21386;-79
2023/09/17 02:55:30;;;;;;;26.20;16.45;;;;;;;17.93;57.78;101004.51;1669683;86;21406;-80
2023/09/17 02:58:38;;;;;;;29.97;15.80;;;;;;;17.93;57.83;100998.97;1670597;86;21347;-80
2023/09/17 03:01:44;;;;;;;25.10;17.37;;;;;;;18.09;57.41;101005.50;1663298;86;21449;-79
2023/09/17 03:04:52;;;;;;;28.27;17.95;;;;;;;18.04;57.33;101003.36;1664118;86;21894;-80
2023/09/17 03:07:58;;;;;;;24.05;17.05;;;;;;;18.01;57.41;101003.77;1664040;86;21957;-80
2023/09/17 03:11:06;;;;;;;29.40;17.87;;;;;;;18.07;57.31;101004.88;1659663;86;21542;-80
2023/09/17 03:14:11;;;;;;;27.82;18.23;;;;;;;18.09;57.12;101009.13;1673405;85;21362;-80
2023/09/17 03:17:18;;;;;;;23.92;17.20;;;;;;;18.26;56.72;101017.05;1674370;85;21350;-80
2023/09/17 03:20:25;;;;;;;27.55;17.65;;;;;;;18.32;56.34;101023.98;1674464;85;21929;-80
2023/09/17 03:23:31;;;;;;;42.05;19.37;;;;;;;18.22;56.68;101020.77;1673580;85;21355;-80
2023/09/17 03:26:36;;;;;;;23.92;16.07;;;;;;;18.36;56.12;101022.50;1681291;85;21357;-80
2023/09/17 03:29:43;;;;;;;27.67;16.80;;;;;;;18.31;56.37;101020.05;1689397;85;21975;-79
2023/09/17 03:32:49;;;;;;;27.67;17.37;;;;;;;18.29;56.55;101027.70;1689239;85;21588;-79
2023/09/17 03:35:58;;;;;;;30.40;16.55;;;;;;;18.09;57.13;101029.88;1689055;84;21425;-80
2023/09/17 03:39:08;;;;;;;25.25;17.17;;;;;;;18.14;57.19;101025.95;1690462;85;21337;-80
2023/09/17 03:42:13;;;;;;;23.00;16.45;;;;;;;18.19;57.13;101028.63;1689422;85;21357;-79
2023/09/17 03:45:19;;;;;;;22.42;17.62;;;;;;;18.33;56.82;101029.84;1690378;85;21334;-80
2023/09/17 03:48:26;;;;;;;30.95;18.30;;;;;;;18.63;56.19;101033.09;1690610;85;21983;-80
2023/09/17 03:51:33;;;;;;;25.27;16.52;;;;;;;18.50;56.36;101030.30;1690630;85;21928;-80
2023/09/17 03:54:38;;;;;;;24.32;16.15;;;;;;;18.14;57.51;101035.64;1673081;85;21337;-80
2023/09/17 03:57:44;;;;;;;23.18;14.87;;;;;;;18.36;57.45;101032.20;1689523;85;21377;-80
2023/09/17 04:00:51;;;;;;;21.48;15.60;;;;;;;18.48;57.21;101040.72;1687612;85;21386;-80
2023/09/17 04:03:57;;;;;;;23.95;16.25;;;;;;;18.41;57.57;101037.11;1669517;86;21360;-80
2023/09/17 04:07:03;;;;;;;26.27;16.00;;;;;;;18.42;57.68;101042.95;1670823;86;21383;-80
2023/09/17 04:10:05;;;;;;;20.75;12.88;;;;;;;18.68;57.15;101043.55;1670794;86;21360;-79
2023/09/17 04:12:58;;;;;;;23.42;14.93;;;;;;;18.79;56.92;101047.63;1671464;86;21303;-79
2023/09/17 04:15:44;;;;;;;27.27;15.48;;;;;;;18.92;56.67;101050.94;1670288;86;21335;-79
2023/09/17 04:18:35;;;;;;;24.00;15.40;;;;;;;19.04;56.43;101041.74;1670606;86;21372;-79
2023/09/17 04:21:41;;;;;;;20.57;14.43;;;;;;;19.20;56.03;101043.78;1670225;86;21339;-80
2023/09/17 04:24:48;;;;;;;32.15;15.93;;;;;;;19.24;56.30;101047.80;1669531;86;21369;-80
2023/09/17 04:27:54;;;;;;;21.48;14.05;;;;;;;19.35;56.05;101052.71;1669347;86;21367;-80
2023/09/17 04:31:00;;;;;;;21.02;15.00;;;;;;;19.64;55.54;101054.16;1669184;86;21366;-80
2023/09/17 04:34:06;;;;;;;22.42;14.85;;;;;;;19.60;55.65;101057.05;1670128;86;21715;-80
2023/09/17 04:37:11;;;;;;;17.95;12.95;;;;;;;19.90;55.08;101058.75;1670832;86;21371;-80
2023/09/17 04:40:18;;;;;;;28.87;14.47;;;;;;;19.92;55.17;101056.63;1670808;86;21319;-80
2023/09/17 04:43:26;;;;;;;21.90;14.13;;;;;;;20.13;54.68;101061.85;1641700;87;21313;-80
2023/09/17 04:46:31;;;;;;;21.50;13.25;;;;;;;20.34;54.29;101059.84;1640593;87;21892;-80
2023/09/17 04:49:43;;;;;;;23.35;12.98;;;;;;;20.46;54.24;101067.77;1640732;87;21318;-81
2023/09/17 04:52:52;;;;;;;17.23;12.70;;;;;;;20.64;53.84;101063.72;1642013;87;21306;-81
2023/09/17 04:55:57;;;;;;;14.83;11.48;;;;;;;20.68;53.69;101066.92;1648943;86;21326;-80
2023/09/17 04:59:04;;;;;;;25.32;14.35;;;;;;;20.84;53.29;101067.78;1670457;86;21339;-80
2023/09/17 05:06:11;;;;;;;15.43;12.55;;;;;;;20.91;53.07;101072.73;1650705;85;21329;-80
2023/09/17 05:09:15;;;;;;;17.92;11.90;;;;;;;21.18;52.24;101070.58;1653443;86;21373;-80
2023/09/17 05:12:21;;;;;;;18.67;12.20;;;;;;;21.38;52.08;101075.13;1644320;86;21388;-80
2023/09/17 05:15:27;;;;;;;17.62;12.78;;;;;;;21.31;51.82;101079.89;1643120;87;21928;-80
2023/09/17 05:18:31;;;;;;;16.82;11.80;;;;;;;21.43;51.60;101078.92;1644065;87;21332;-81
2023/09/17 05:21:38;;;;;;;17.00;11.60;;;;;;;21.66;51.00;101083.83;1643953;87;21352;-80
2023/09/17 05:24:43;;;;;;;21.10;11.28;;;;;;;21.71;50.70;101080.89;1643654;87;21360;-81
2023/09/17 05:27:49;;;;;;;15.53;10.60;;;;;;;21.89;50.72;101081.75;1643840;87;21403;-80
2023/09/17 05:30:58;;;;;;;18.23;11.93;;;;;;;21.87;51.14;101087.23;1644062;87;21376;-80
2023/09/17 05:33:58;;;;;;;20.02;11.55;;;;;;;21.81;51.09;101085.38;1644261;87;21324;-80
2023/09/17 05:37:03;;;;;;;21.20;11.88;;;;;;;21.95;50.50;101089.16;1642756;87;21217;-80
2023/09/17 05:40:09;;;;;;;16.70;12.15;;;;;;;21.98;50.74;101086.47;1643801;87;21356;-81
2023/09/17 05:43:14;;;;;;;16.02;10.15;;;;;;;22.09;50.74;101080.11;1639889;87;21402;-80
2023/09/17 05:46:20;;;;;;;15.32;10.60;;;;;;;22.15;50.48;101079.73;1620541;88;21898;-80
2023/09/17 05:49:26;;;;;;;15.63;10.85;;;;;;;22.22;50.22;101074.09;1640383;87;21370;-81
2023/09/17 05:52:32;;;;;;;12.15;9.18;;;;;;;22.35;50.35;101083.67;1621445;88;21922;-80
2023/09/17 05:55:38;;;;;;;16.80;11.40;;;;;;;22.43;49.77;101084.72;1641526;86;21982;-81
2023/09/17 05:58:44;;;;;;;18.07;9.43;;;;;;;22.75;48.97;101086.72;1652982;86;21941;-80
2023/09/17 06:01:49;;;;;;;22.37;11.30;;;;;;;22.90;48.26;101091.33;1652363;86;22034;-81
2023/09/17 06:04:56;;;;;;;17.48;9.78;;;;;;;23.07;47.95;101085.92;1652227;86;21320;-80
2023/09/17 06:08:02;;;;;;;15.48;9.88;;;;;;;23.54;47.22;101091.53;1647636;85;21694;-81
2023/09/17 06:11:08;;;;;;;15.72;9.05;;;;;;;23.70;46.66;101097.78;1640480;87;21914;-80
2023/09/17 06:14:14;;;;;;;15.88;9.83;;;;;;;23.76;46.09;101099.30;1583508;89;21372;-81
2023/09/17 06:17:19;;;;;;;20.08;10.20;;;;;;;23.92;45.95;101092.98;1630163;88;21227;-81
2023/09/17 06:20:24;;;;;;;20.97;9.35;;;;;;;24.06;45.90;101097.20;1630138;88;21230;-81
2023/09/17 06:23:30;;;;;;;17.15;10.00;;;;;;;24.11;45.64;101093.11;1584511;90;21344;-81
2023/09/17 06:26:36;;;;;;;16.90;9.20;;;;;;;24.50;44.47;101098.95;1599876;89;21348;-81
2023/09/17 06:29:41;;;;;;;15.78;9.60;;;;;;;24.54;44.28;101102.95;1606698;89;21370;-81
2023/09/17 06:32:48;;;;;;;15.83;9.50;;;;;;;24.51;44.86;101109.59;1607655;89;21955;-80
2023/09/17 06:35:54;;;;;;;23.57;10.53;;;;;;;24.69;43.81;101108.84;1608047;89;21425;-80
2023/09/17 06:38:59;;;;;;;16.75;8.58;;;;;;;24.80;43.78;101107.10;1607747;89;21349;-81
2023/09/17 06:42:06;;;;;;;10.75;7.85;;;;;;;25.05;43.50;101112.85;1598952;89;21896;-80
2023/09/17 06:45:13;;;;;;;9.68;7.45;;;;;;;25.18;42.50;101118.16;1594648;90;21376;-81
2023/09/17 06:48:18;;;;;;;14.45;9.30;;;;;;;25.22;42.04;101120.75;1595569;90;21361;-80
2023/09/17 06:51:24;;;;;;;13.90;8.30;;;;;;;25.26;41.34;101117.72;1594409;90;22008;-81
2023/09/17 06:54:30;;;;;;;11.00;8.30;;;;;;;25.26;41.91;101118.27;1623376;88;21343;-81
2023/09/17 06:57:35;;;;;;;11.33;8.00;;;;;;;25.31;41.09;101120.59;1651649;86;21345;-80
2023/09/17 07:00:40;;;;;;;10.80;7.65;;;;;;;25.38;40.25;101131.09;1654267;86;21320;-81
2023/09/17 07:03:47;;;;;;;13.70;8.28;;;;;;;25.37;40.09;101123.80;1655122;86;21873;-80
2023/09/17 07:06:51;;;;;;;11.80;7.42;;;;;;;25.48;39.81;101122.85;1654588;86;21916;-81
2023/09/17 07:09:50;;;;;;;14.30;8.13;;;;;;;25.67;38.79;101126.22;1660130;85;21365;-81
2023/09/17 07:12:56;;;;;;;14.47;7.60;;;;;;;25.78;38.62;101126.41;1661343;86;21317;-81
2023/09/17 07:16:01;;;;;;;10.60;7.95;;;;;;;25.84;37.67;101117.83;1660081;86;21437;-81
2023/09/17 07:19:07;;;;;;;14.50;7.65;;;;;;;25.80;38.13;101119.45;1661148;86;22214;-80
2023/09/17 07:22:14;;;;;;;21.57;7.37;;;;;;;26.13;37.84;101112.90;1660986;86;21319;-81
2023/09/17 07:25:19;;;;;;;13.83;6.55;;;;;;;26.07;37.08;101116.75;1660932;86;21325;-81
2023/09/17 07:28:25;;;;;;;14.28;6.87;;;;;;;26.25;36.81;101121.16;1660821;86;21326;-80
2023/09/17 07:31:32;;;;;;;16.37;6.47;;;;;;;26.31;36.50;101117.89;1659597;86;21364;-81
2023/09/17 07:34:37;;;;;;;12.50;7.12;;;;;;;26.31;35.68;101115.94;1661040;86;21873;-81
2023/09/17 07:37:43;;;;;;;10.65;7.03;;;;;;;26.64;35.79;101111.30;1659986;86;21372;-81
2023/09/17 07:40:51;;;;;;;13.10;6.55;;;;;;;26.45;36.16;101112.21;1657646;86;21341;-81
2023/09/17 07:43:56;;;;;;;10.30;6.10;;;;;;;26.55;36.04;101110.92;1623843;88;21373;-80
2023/09/17 07:47:01;;;;;;;9.08;6.33;;;;;;;26.74;34.92;101116.46;1681760;85;21378;-80
2023/09/17 07:50:07;;;;;;;11.80;6.35;;;;;;;26.70;34.60;101106.03;1682114;85;21306;-80
2023/09/17 07:53:12;;;;;;;8.08;6.40;;;;;;;26.50;35.19;101101.05;1682149;85;21323;-80
2023/09/17 07:56:18;;;;;;;6.87;5.12;;;;;;;26.63;35.93;101114.67;1682101;85;21306;-80
2023/09/17 07:59:24;;;;;;;7.53;5.05;;;;;;;26.54;33.90;101100.81;1682000;85;21355;-80
2023/09/17 08:02:28;;;;;;;7.45;5.10;;;;;;;26.74;33.39;101103.83;1682024;85;21338;-80
2023/09/17 08:05:28;;;;;;;9.85;4.97;;;;;;;26.58;33.05;101106.16;1682554;85;21338;-80
2023/09/17 08:08:34;;;;;;;11.53;5.65;;;;;;;26.55;32.94;101100.26;1679955;85;21334;-79
2023/09/17 08:11:39;;;;;;;11.70;5.20;;;;;;;26.79;33.13;101101.64;1651389;86;21347;-80
2023/09/17 08:14:48;;;;;;;9.03;5.47;;;;;;;26.80;33.19;101091.25;1651615;87;21854;-80
2023/09/17 08:17:54;;;;;;;10.28;6.47;;;;;;;26.88;33.57;101093.59;1635633;87;21407;-80
2023/09/17 08:21:00;;;;;;;8.25;5.40;;;;;;;27.13;33.66;101100.02;1651447;87;21384;-80
2023/09/17 08:24:06;;;;;;;6.22;4.67;;;;;;;27.24;34.33;101094.77;1649945;87;21352;-80
2023/09/17 08:27:14;;;;;;;9.55;4.50;;;;;;;27.47;33.00;101104.21;1651484;86;21342;-80
2023/09/17 08:30:20;;;;;;;10.82;4.62;;;;;;;27.61;31.53;101097.57;1622487;88;21503;-80
2023/09/17 08:33:25;;;;;;;5.92;4.53;;;;;;;27.58;31.23;101096.73;1679576;85;21355;-80
2023/09/17 08:36:31;;;;;;;8.65;5.30;;;;;;;27.53;31.57;101089.67;1679632;85;21328;-80
2023/09/17 08:39:36;;;;;;;4.83;4.08;;;;;;;27.36;32.34;101084.77;1679429;85;21332;-80
2023/09/17 08:42:42;;;;;;;9.70;5.78;;;;;;;27.22;31.94;101085.21;1679452;85;21323;-80
2023/09/17 08:45:47;;;;;;;12.35;5.97;;;;;;;27.35;32.46;101087.28;1679565;85;21347;-81
2023/09/17 08:48:54;;;;;;;9.63;5.58;;;;;;;27.35;32.31;101081.67;1678544;85;21347;-80
2023/09/17 08:52:00;;;;;;;8.78;5.78;;;;;;;27.12;32.75;101089.91;1679789;85;21327;-81
2023/09/17 08:55:08;;;;;;;13.30;5.53;;;;;;;27.05;32.90;101084.46;1679665;85;21350;-80
2023/09/17 08:58:25;;;;;;;7.45;5.28;;;;;;;27.13;33.54;101076.15;1679091;85;21378;-80
2023/09/17 09:01:31;;;;;;;6.10;4.92;;;;;;;27.07;32.84;101083.66;1678819;85;21323;-81
2023/09/17 09:04:37;;;;;;;8.65;6.08;;;;;;;27.40;33.21;101076.92;1679675;85;21323;-81
2023/09/17 09:07:44;;;;;;;6.72;4.70;;;;;;;27.41;33.01;101080.58;1679573;85;21347;-80
2023/09/17 09:10:52;;;;;;;9.65;5.28;;;;;;;27.46;32.35;101084.83;1667889;85;22019;-79
2023/09/17 09:13:59;;;;;;;11.55;5.55;;;;;;;27.53;33.12;101088.83;1654567;86;21357;-80
2023/09/17 09:17:04;;;;;;;9.25;5.90;;;;;;;27.57;32.80;101084.33;1655201;86;21369;-79
2023/09/17 09:20:18;;;;;;;10.05;6.00;;;;;;;27.46;33.02;101073.03;1655526;86;21331;-79
2023/09/17 09:23:21;;;;;;;12.23;6.50;;;;;;;27.52;33.57;101076.72;1655829;86;21345;-79
2023/09/17 09:26:28;;;;;;;8.95;5.87;;;;;;;27.59;33.04;101070.87;1654793;86;21894;-79
2023/09/17 09:29:33;;;;;;;8.00;5.78;;;;;;;27.67;32.80;101078.24;1652984;86;21334;-80
2023/09/17 09:32:38;;;;;;;13.20;6.35;;;;;;;27.46;33.07;101066.00;1653273;86;22404;-80
2023/09/17 09:35:45;;;;;;;8.73;6.20;;;;;;;27.33;33.64;101069.28;1652542;86;21323;-80
2023/09/17 09:38:51;;;;;;;11.40;6.08;;;;;;;27.44;33.67;101068.25;1653243;86;21383;-80
2023/09/17 09:41:57;;;;;;;10.23;6.03;;;;;;;27.47;33.56;101065.45;1665768;86;21343;-80
2023/09/17 09:45:03;;;;;;;7.65;5.70;;;;;;;27.43;33.29;101062.35;1672247;86;21355;-80
2023/09/17 09:48:08;;;;;;;11.70;5.20;;;;;;;27.42;33.46;101068.22;1671728;86;21382;-80
2023/09/17 09:51:14;;;;;;;8.13;4.65;;;;;;;27.85;32.82;101057.83;1671259;86;21594;-80
2023/09/17 09:54:20;;;;;;;7.70;4.92;;;;;;;27.78;32.07;101058.09;1671126;86;22005;-80
2023/09/17 09:57:26;;;;;;;6.70;4.90;;;;;;;27.83;31.78;101051.65;1672035;86;21334;-80
2023/09/17 10:00:35;;;;;;;5.40;4.12;;;;;;;27.98;31.52;101062.96;1672121;86;21376;-80
2023/09/17 10:03:40;;;;;;;5.40;4.50;;;;;;;27.91;31.05;101056.76;1671367;86;21354;-80
2023/09/17 10:06:48;;;;;;;7.47;4.28;;;;;;;27.73;30.97;101050.48;1672298;86;21355;-80
2023/09/17 10:09:55;;;;;;;6.85;4.92;;;;;;;28.02;30.30;101055.67;1671509;86;21327;-80
2023/09/17 10:13:03;;;;;;;5.78;4.40;;;;;;;28.02;29.69;101067.77;1671014;85;21362;-79
2023/09/17 10:16:10;;;;;;;6.05;4.62;;;;;;;28.11;30.09;101066.68;1672373;86;21335;-80
2023/09/17 10:19:20;;;;;;;7.28;4.45;;;;;;;28.10;30.27;101060.78;1671580;86;21366;-80
2023/09/17 10:22:26;;;;;;;6.30;4.60;;;;;;;28.24;29.55;101062.52;1672849;86;21388;-80
2023/09/17 10:25:31;;;;;;;5.40;4.00;;;;;;;27.69;30.30;101061.09;1671471;86;21324;-79
2023/09/17 10:28:38;;;;;;;6.25;4.20;;;;;;;27.93;29.88;101051.70;1672729;86;21319;-79
2023/09/17 10:31:45;;;;;;;6.33;4.70;;;;;;;27.79;30.37;101061.18;1672410;86;21335;-80
2023/09/17 10:34:52;;;;;;;9.68;5.40;;;;;;;27.98;30.24;101060.15;1670762;86;21374;-80
2023/09/17 10:37:59;;;;;;;5.20;4.35;;;;;;;27.95;30.21;101048.06;1671970;86;21359;-80
2023/09/17 10:41:06;;;;;;;7.17;4.50;;;;;;;27.98;29.36;101048.34;1670597;85;21269;-80
2023/09/17 10:44:14;;;;;;;8.80;4.22;;;;;;;28.03;29.42;101046.11;1672172;86;21354;-80
2023/09/17 10:47:21;;;;;;;8.05;4.30;;;;;;;28.21;29.38;101052.65;1672191;86;21873;-81
2023/09/17 10:50:30;;;;;;;5.33;4.22;;;;;;;28.25;29.30;101043.11;1671515;86;21339;-80
2023/09/17 10:53:37;;;;;;;5.62;4.78;;;;;;;28.22;29.15;101041.68;1672248;86;21314;-81
2023/09/17 10:56:45;;;;;;;4.92;4.00;;;;;;;27.82;29.72;101049.41;1670891;86;21299;-80
2023/09/17 10:59:48;;;;;;;6.22;4.90;;;;;;;28.00;29.39;101039.09;1671311;86;21419;-80
2023/09/17 11:02:57;;;;;;;8.13;4.33;;;;;;;28.01;30.33;101046.96;1670621;86;21364;-80
2023/09/17 11:06:03;;;;;;;10.18;4.20;;;;;;;27.96;29.65;101039.34;1670975;86;21352;-80
2023/09/17 11:09:11;;;;;;;5.72;4.50;;;;;;;27.94;29.69;101037.92;1671198;86;21328;-80
2023/09/17 11:12:16;;;;;;;5.22;4.42;;;;;;;28.19;29.43;101040.00;1659410;86;21888;-81
2023/09/17 11:15:22;;;;;;;6.25;4.70;;;;;;;28.44;29.47;101031.66;1676903;85;21910;-80
2023/09/17 11:18:27;;;;;;;6.37;4.12;;;;;;;28.33;29.44;101031.33;1660918;85;21338;-81
2023/09/17 11:21:35;;;;;;;5.00;4.30;;;;;;;28.51;29.24;101029.97;1660470;85;21418;-81
2023/09/17 11:24:42;;;;;;;4.78;3.72;;;;;;;28.67;29.48;101033.67;1675480;85;21331;-81
2023/09/17 11:27:57;;;;;;;6.30;4.00;;;;;;;28.59;28.37;101038.43;1676605;85;21335;-81
2023/09/17 11:31:13;;;;;;;5.58;4.15;;;;;;;28.58;27.81;101026.34;1676014;85;21886;-80
2023/09/17 11:34:18;;;;;;;5.22;3.33;;;;;;;28.35;28.14;101025.45;1676337;85;21389;-81
2023/09/17 11:37:25;;;;;;;5.00;3.70;;;;;;;28.30;27.90;101026.24;1660456;85;21331;-80
2023/09/17 11:40:30;;;;;;;4.10;3.67;;;;;;;28.41;28.04;101015.88;1676044;85;21366;-80
2023/09/17 11:43:37;;;;;;;13.50;4.30;;;;;;;28.35;28.46;101023.47;1677034;85;21327;-80
2023/09/17 11:46:43;;;;;;;5.55;3.50;;;;;;;28.49;28.67;101016.75;1677185;85;21284;-81
2023/09/17 11:49:50;;;;;;;4.65;3.65;;;;;;;28.59;27.68;101013.95;1662560;85;21351;-81
2023/09/17 11:53:11;;;;;;;6.40;4.50;;;;;;;28.60;27.88;101006.34;1663646;85;21347;-81
2023/09/17 11:56:16;;;;;;;8.45;4.25;;;;;;;28.57;28.16;101007.77;1675824;85;21350;-81
2023/09/17 11:59:22;;;;;;;5.25;3.80;;;;;;;28.48;28.90;101005.22;1675699;85;21301;-78
2023/09/17 12:02:29;;;;;;;6.30;3.50;;;;;;;28.52;28.48;101002.98;1677082;85;21335;-80
2023/09/17 12:05:34;;;;;;;4.83;4.25;;;;;;;28.62;28.60;101004.11;1676125;85;21366;-81
2023/09/17 12:08:39;;;;;;;6.35;4.17;;;;;;;28.38;28.92;100995.36;1676910;85;21342;-81
2023/09/17 12:11:47;;;;;;;9.20;4.25;;;;;;;28.49;28.87;101001.28;1662342;85;21354;-81
2023/09/17 12:14:54;;;;;;;6.37;4.87;;;;;;;28.39;28.72;100995.64;1674717;85;21848;-80
2023/09/17 12:18:01;;;;;;;6.25;4.03;;;;;;;28.37;28.62;100993.64;1677258;85;21315;-80
2023/09/17 12:21:09;;;;;;;5.15;4.58;;;;;;;28.37;28.85;100988.02;1676172;85;22016;-80
2023/09/17 12:24:16;;;;;;;4.33;3.92;;;;;;;28.46;28.43;100979.31;1675609;85;21342;-80
2023/09/17 12:30:39;;;;;;;8.10;4.92;;;;;;;28.31;28.92;100983.48;1632015;88;21341;-80
2023/09/17 12:33:46;;;;;;;5.67;4.17;;;;;;;28.34;29.00;100976.78;1602145;89;21479;-80
2023/09/17 12:36:52;;;;;;;5.60;4.22;;;;;;;28.25;29.21;100973.63;1625965;88;21369;-80
2023/09/17 12:39:57;;;;;;;11.53;3.92;;;;;;;28.60;29.03;100969.20;1626348;88;21358;-80
2023/09/17 12:43:03;;;;;;;8.53;4.62;;;;;;;28.72;28.90;100976.81;1626295;88;21370;-81
2023/09/17 12:46:08;;;;;;;5.33;3.72;;;;;;;28.67;29.00;100982.44;1626309;88;21339;-80
2023/09/17 12:49:15;;;;;;;6.25;4.50;;;;;;;28.64;29.00;100971.73;1627272;88;21346;-80
2023/09/17 12:52:20;;;;;;;8.93;4.37;;;;;;;28.46;28.63;100973.69;1626545;88;21876;-80
2023/09/17 12:55:25;;;;;;;7.25;4.50;;;;;;;28.37;28.47;100976.77;1629009;86;21358;-80
2023/09/17 12:58:32;;;;;;;7.75;4.78;;;;;;;28.55;28.79;100970.60;1670807;86;21317;-82
2023/09/17 13:01:36;;;;;;;6.72;4.25;;;;;;;28.42;28.91;100969.73;1671307;86;21360;-80
2023/09/17 13:04:50;;;;;;;7.87;4.47;;;;;;;28.46;28.50;100967.49;1670935;86;21328;-80
2023/09/17 13:07:57;;;;;;;10.28;4.85;;;;;;;28.36;28.77;100962.42;1671006;86;21952;-80
2023/09/17 13:11:04;;;;;;;7.70;4.25;;;;;;;28.69;28.38;100960.47;1665902;86;21364;-80
2023/09/17 13:14:11;;;;;;;5.72;4.55;;;;;;;28.67;28.34;100954.30;1676699;85;21930;-80
2023/09/17 13:17:17;;;;;;;5.00;4.10;;;;;;;28.66;28.25;100963.88;1673106;85;21328;-80
2023/09/17 13:20:22;;;;;;;6.17;4.40;;;;;;;28.70;28.36;100957.09;1677376;85;21312;-80
2023/09/17 13:23:28;;;;;;;6.33;4.58;;;;;;;28.45;28.29;100953.16;1674662;85;21320;-80
2023/09/17 13:26:27;;;;;;;7.25;5.00;;;;;;;28.55;28.25;100948.09;1664167;85;21634;-80
2023/09/17 13:29:20;;;;;;;6.97;3.87;;;;;;;28.64;28.43;100942.19;1672581;85;21865;-80
2023/09/17 13:32:19;;;;;;;7.67;4.58;;;;;;;28.66;28.40;100941.36;1671402;85;21912;-80
2023/09/17 13:35:29;;;;;;;6.12;4.20;;;;;;;28.61;28.46;100937.70;1672237;85;21929;-79
2023/09/17 13:38:34;;;;;;;5.62;4.42;;;;;;;28.59;28.48;100934.31;1672539;85;21358;-80
2023/09/17 13:41:40;;;;;;;8.20;3.77;;;;;;;28.68;28.22;100937.69;1672208;85;21358;-80
2023/09/17 13:44:47;;;;;;;13.13;4.10;;;;;;;28.44;28.03;100939.38;1672380;85;21893;-80
2023/09/17 13:47:52;;;;;;;5.62;4.00;;;;;;;28.63;27.66;100934.88;1670883;85;21339;-80
2023/09/17 13:50:57;;;;;;;8.75;4.10;;;;;;;28.54;27.98;100933.75;1671004;85;21312;-80
2023/09/17 13:54:02;;;;;;;4.75;4.25;;;;;;;28.51;28.34;100932.36;1672203;85;21330;-80
2023/09/17 13:57:07;;;;;;;8.65;4.67;;;;;;;28.26;28.45;100935.94;1672332;85;21338;-80
2023/09/17 14:00:16;;;;;;;8.60;4.67;;;;;;;28.24;28.25;100934.55;1661344;85;21338;-81
2023/09/17 14:03:22;;;;;;;6.40;4.37;;;;;;;28.23;28.38;100935.64;1666671;86;21379;-80
2023/09/17 14:06:28;;;;;;;5.05;4.28;;;;;;;28.31;28.23;100926.66;1668506;86;21886;-78
2023/09/17 14:09:27;;;;;;;8.65;4.15;;;;;;;28.48;28.52;100937.70;1668146;86;21925;-81
2023/09/17 14:12:32;;;;;;;8.33;4.10;;;;;;;28.42;28.56;100933.16;1674269;85;21901;-81
2023/09/17 14:15:43;;;;;;;10.35;4.40;;;;;;;28.59;28.38;100938.53;1674064;85;21331;-81
2023/09/17 14:18:49;;;;;;;5.67;4.80;;;;;;;28.44;28.48;100937.97;1666429;86;21335;-81
2023/09/17 14:21:57;;;;;;;5.87;4.90;;;;;;;28.49;28.27;100936.56;1666102;86;21334;-81